Time;durP1;ratioP1;P1;durP2;ratioP2;P2;SDS_P1;SDS_P2;PMS_P1;PMS_P2;Temp;Humidity;BMP_temperature;BMP_pressure;BME280_temperature;BME280_humidity;BME280_pressure;Samples;Min_cycle;Max_cycle;Signal;HPM_P1;HPM_P2
2022/04/22 00:02:41;;;;;;;;;;;;;;;12.24;60.65;99047.47;5041890;28;19940;-66
2022/04/22 00:05:25;;;;;;;;;;;;;;;12.23;60.69;99058.75;5057042;28;20053;-65
2022/04/22 00:08:09;;;;;;;;;;;;;;;12.20;60.71;99046.66;5056809;28;20398;-65
2022/04/22 00:13:57;;;;;;;;;;;;;;;12.21;60.53;99050.13;5056733;28;19928;-65
2022/04/22 00:16:41;;;;;;;;;;;;;;;12.22;60.50;99049.25;5041780;28;19923;-66
2022/04/22 00:19:25;;;;;;;;;;;;;;;12.20;60.41;99048.41;5057038;28;20003;-65
2022/04/22 00:22:09;;;;;;;;;;;;;;;12.18;60.90;99049.28;5056293;28;19923;-65
2022/04/22 00:24:53;;;;;;;;;;;;;;;12.18;60.97;99045.78;5041467;28;19923;-66
2022/04/22 00:27:38;;;;;;;;;;;;;;;12.18;60.75;99048.38;5056239;28;20395;-65
2022/04/22 00:30:22;;;;;;;;;;;;;;;12.17;60.99;99041.47;5056503;28;19959;-65
2022/04/22 00:33:06;;;;;;;;;;;;;;;12.16;60.60;99043.22;5056162;28;19951;-65
2022/04/22 00:35:50;;;;;;;;;;;;;;;12.16;60.99;99047.53;5055950;28;20055;-66
2022/04/22 00:38:34;;;;;;;;;;;;;;;12.16;61.16;99031.94;5056341;28;19924;-65
2022/04/22 00:41:18;;;;;;;;;;;;;;;12.15;60.94;99041.50;5056214;28;20019;-65
2022/04/22 00:44:02;;;;;;;;;;;;;;;12.14;60.80;99039.75;5056568;28;20019;-66
2022/04/22 00:46:46;;;;;;;;;;;;;;;12.14;61.12;99042.38;5056589;28;19974;-65
2022/04/22 00:49:30;;;;;;;;;;;;;;;12.13;60.94;99040.63;5056439;28;19939;-65
2022/04/22 00:52:14;;;;;;;;;;;;;;;12.13;60.83;99035.44;5055692;28;19967;-65
2022/04/22 00:54:58;;;;;;;;;;;;;;;12.12;60.90;99032.88;5055934;28;20397;-65
2022/04/22 00:57:42;;;;;;;;;;;;;;;12.10;60.87;99032.84;5055984;28;19938;-65
2022/04/22 01:00:26;;;;;;;;;;;;;;;12.11;61.08;99033.75;5056308;28;19927;-65
2022/04/22 01:03:10;;;;;;;;;;;;;;;12.10;61.26;99022.47;5055580;28;19923;-65
2022/04/22 01:11:59;;;;;;;;;;;;;;;12.10;61.11;99013.81;5055588;28;19924;-65
2022/04/22 01:14:44;;;;;;;;;;;;;;;12.09;61.34;99010.34;5056133;28;20378;-65
2022/04/22 01:17:29;;;;;;;;;;;;;;;12.07;61.29;99009.50;5054806;28;19963;-65
2022/04/22 01:20:13;;;;;;;;;;;;;;;12.06;61.12;99012.13;5055198;28;19931;-65
2022/04/22 01:22:58;;;;;;;;;;;;;;;12.06;60.84;99012.13;5040978;28;19940;-65
2022/04/22 01:25:42;;;;;;;;;;;;;;;12.04;61.29;99012.13;5040208;28;19940;-65
2022/04/22 01:28:27;;;;;;;;;;;;;;;12.04;61.38;99012.13;5054986;28;19927;-65
2022/04/22 01:31:11;;;;;;;;;;;;;;;12.01;61.33;99010.41;5055265;28;19970;-65
2022/04/22 01:33:55;;;;;;;;;;;;;;;12.01;61.43;99009.56;5040511;28;20013;-65
2022/04/22 01:36:39;;;;;;;;;;;;;;;11.99;61.32;98991.38;5055204;28;20284;-65
2022/04/22 01:39:24;;;;;;;;;;;;;;;11.98;61.34;98993.97;5040437;28;19923;-65
2022/04/22 01:42:08;;;;;;;;;;;;;;;11.98;61.34;98988.75;5054747;28;19939;-66
2022/04/22 01:44:52;;;;;;;;;;;;;;;11.96;61.12;98990.50;5040503;28;19959;-66
2022/04/22 01:47:36;;;;;;;;;;;;;;;11.96;61.57;98990.50;5054883;28;19978;-65
2022/04/22 01:50:20;;;;;;;;;;;;;;;11.95;61.63;98994.84;5055185;28;19987;-66
2022/04/22 01:53:06;;;;;;;;;;;;;;;11.95;61.07;98988.78;5054431;28;20006;-65
2022/04/22 01:55:50;;;;;;;;;;;;;;;11.95;61.44;98986.19;5040531;28;20011;-65
2022/04/22 01:58:34;;;;;;;;;;;;;;;11.94;61.41;98993.13;5054676;28;20383;-65
2022/04/22 02:01:18;;;;;;;;;;;;;;;11.91;61.56;98993.13;5039583;28;19924;-65
2022/04/22 02:04:02;;;;;;;;;;;;;;;11.92;61.44;98991.38;5038779;28;19924;-66
2022/04/22 02:06:46;;;;;;;;;;;;;;;11.93;61.45;98996.59;5039751;28;20416;-66
2022/04/22 02:09:29;;;;;;;;;;;;;;;11.91;61.71;98993.13;5054946;28;19939;-65
2022/04/22 02:12:13;;;;;;;;;;;;;;;11.90;61.63;98990.56;5039815;28;19923;-66
2022/04/22 02:14:57;;;;;;;;;;;;;;;11.88;61.46;98988.84;5039640;28;19923;-65
2022/04/22 02:17:41;;;;;;;;;;;;;;;11.90;61.57;98985.38;5054393;28;20430;-65
2022/04/22 02:20:25;;;;;;;;;;;;;;;11.88;61.53;98993.16;5054060;28;19966;-65
2022/04/22 02:23:09;;;;;;;;;;;;;;;11.84;61.70;98981.03;5054001;28;19923;-65
2022/04/22 02:25:53;;;;;;;;;;;;;;;11.84;61.57;98976.75;5039013;28;20410;-65
2022/04/22 02:28:38;;;;;;;;;;;;;;;11.84;61.67;98975.84;5054720;28;19923;-65
2022/04/22 02:31:22;;;;;;;;;;;;;;;11.83;61.63;98969.81;5039014;28;20352;-65
2022/04/22 02:34:06;;;;;;;;;;;;;;;11.83;61.58;98969.81;5039292;28;19927;-65
2022/04/22 02:36:50;;;;;;;;;;;;;;;11.81;61.71;98974.16;5039007;28;19922;-65
2022/04/22 02:39:34;;;;;;;;;;;;;;;11.81;61.83;98958.56;5053699;28;19924;-65
2022/04/22 02:45:27;;;;;;;;;;;;;;;11.80;61.81;98968.97;5054082;28;19950;-65
2022/04/22 02:48:11;;;;;;;;;;;;;;;11.79;61.85;98962.91;5053834;28;19975;-66
2022/04/22 02:50:55;;;;;;;;;;;;;;;11.79;61.74;98959.47;5053968;28;19967;-66
2022/04/22 02:53:39;;;;;;;;;;;;;;;11.77;61.75;98964.66;5053939;28;19924;-65
2022/04/22 02:56:23;;;;;;;;;;;;;;;11.78;61.81;98965.53;5053832;28;19923;-64
2022/04/22 02:59:08;;;;;;;;;;;;;;;11.76;62.00;98970.72;5038764;28;19926;-65
2022/04/22 03:01:52;;;;;;;;;;;;;;;11.77;61.64;98974.19;5053599;28;19924;-66
2022/04/22 03:04:36;;;;;;;;;;;;;;;11.75;61.85;98965.53;5053799;28;20355;-64
2022/04/22 03:07:20;;;;;;;;;;;;;;;11.72;61.87;98951.72;5039281;28;19955;-65
2022/04/22 03:10:05;;;;;;;;;;;;;;;11.71;61.80;98962.97;5053354;28;19955;-66
2022/04/22 03:12:48;;;;;;;;;;;;;;;11.72;61.91;98964.69;5038440;28;19931;-66
2022/04/22 03:15:33;;;;;;;;;;;;;;;11.71;61.92;98965.56;5043173;28;19924;-65
2022/04/22 03:18:17;;;;;;;;;;;;;;;11.68;61.94;98962.97;5060481;28;19987;-65
2022/04/22 03:21:01;;;;;;;;;;;;;;;11.68;61.74;98959.53;5060720;28;20030;-65
2022/04/22 03:23:46;;;;;;;;;;;;;;;11.68;61.79;98965.56;5059941;28;20024;-65
2022/04/22 03:26:30;;;;;;;;;;;;;;;11.67;61.98;98966.47;5045183;28;19967;-65
2022/04/22 03:29:13;;;;;;;;;;;;;;;11.68;61.71;98960.38;5060244;28;20455;-65
2022/04/22 03:31:57;;;;;;;;;;;;;;;11.65;62.14;98946.56;5059637;28;19931;-65
2022/04/22 03:34:41;;;;;;;;;;;;;;;11.63;61.93;98945.72;5060165;28;19924;-65
2022/04/22 03:37:25;;;;;;;;;;;;;;;11.62;61.72;98943.97;5045229;28;19923;-65
2022/04/22 03:40:10;;;;;;;;;;;;;;;11.63;62.02;98933.59;5059975;28;19923;-65
2022/04/22 03:42:54;;;;;;;;;;;;;;;11.62;62.19;98943.97;5060286;28;19924;-66
2022/04/22 03:45:38;;;;;;;;;;;;;;;11.61;62.15;98940.53;5044983;28;19923;-65
2022/04/22 03:48:22;;;;;;;;;;;;;;;11.58;62.09;98938.84;5061026;28;19962;-65
2022/04/22 03:51:06;;;;;;;;;;;;;;;11.57;61.98;98934.50;5059843;28;20039;-65
2022/04/22 03:53:50;;;;;;;;;;;;;;;11.60;61.97;98935.38;5059652;28;19970;-65
2022/04/22 03:59:37;;;;;;;;;;;;;;;11.58;62.35;98936.25;5060227;28;20023;-65
2022/04/22 04:02:21;;;;;;;;;;;;;;;11.57;62.06;98939.69;5059406;28;20317;-66
2022/04/22 04:05:05;;;;;;;;;;;;;;;11.57;62.13;98937.09;5059920;28;19923;-65
2022/04/22 04:07:48;;;;;;;;;;;;;;;11.57;62.29;98938.81;5044974;28;19923;-66
2022/04/22 04:16:38;;;;;;;;;;;;;;;11.53;62.30;98940.59;5059965;28;20011;-65
2022/04/22 04:25:29;;;;;;;;;;;;;;;11.52;62.31;98932.81;5059551;28;20386;-65
2022/04/22 04:28:15;;;;;;;;;;;;;;;11.50;62.29;98938.00;5055975;28;20398;-66
2022/04/22 04:30:58;;;;;;;;;;;;;;;11.49;61.92;98938.88;5056797;28;20375;-65
2022/04/22 04:33:43;;;;;;;;;;;;;;;11.49;62.48;98936.28;5041759;28;19971;-65
2022/04/22 04:36:28;;;;;;;;;;;;;;;11.50;62.08;98935.41;5056370;28;19967;-65
2022/04/22 04:39:12;;;;;;;;;;;;;;;11.50;62.32;98934.56;5041333;28;19923;-65
2022/04/22 04:41:56;;;;;;;;;;;;;;;11.50;62.50;98935.41;5055225;28;20407;-66
2022/04/22 04:44:40;;;;;;;;;;;;;;;11.49;62.53;98936.28;5055989;28;19923;-66
2022/04/22 04:47:23;;;;;;;;;;;;;;;11.48;62.40;98931.94;5056443;28;19924;-65
2022/04/22 04:50:08;;;;;;;;;;;;;;;11.48;62.34;98926.75;5055912;28;19963;-65
2022/04/22 04:52:52;;;;;;;;;;;;;;;11.49;62.50;98935.44;5055935;28;20016;-65
2022/04/22 04:55:36;;;;;;;;;;;;;;;11.50;61.96;98935.41;5056449;28;19927;-66
2022/04/22 04:58:20;;;;;;;;;;;;;;;11.50;62.51;98947.53;5056061;28;20330;-65
2022/04/22 05:01:04;;;;;;;;;;;;;;;11.51;61.96;98942.31;5056388;28;19971;-65
2022/04/22 05:03:48;;;;;;;;;;;;;;;11.52;62.05;98938.84;5055983;28;19923;-65
2022/04/22 05:06:32;;;;;;;;;;;;;;;11.55;62.17;98943.16;5055946;28;19923;-66
2022/04/22 05:09:16;;;;;;;;;;;;;;;11.54;62.47;98938.84;5055815;28;19971;-65
2022/04/22 05:12:00;;;;;;;;;;;;;;;11.53;62.48;98948.38;5056100;28;20438;-65
2022/04/22 05:14:46;;;;;;;;;;;;;;;11.53;62.51;98942.28;5056145;28;20414;-65
2022/04/22 05:17:29;;;;;;;;;;;;;;;11.51;62.43;98947.50;5055798;28;19940;-65
2022/04/22 05:20:14;;;;;;;;;;;;;;;11.50;62.44;98944.94;5055627;28;19963;-65
2022/04/22 05:22:58;;;;;;;;;;;;;;;11.50;62.46;98943.19;5055664;28;19923;-65
2022/04/22 05:25:42;;;;;;;;;;;;;;;11.48;62.64;98937.13;5055120;28;20012;-66
2022/04/22 05:28:26;;;;;;;;;;;;;;;11.47;62.27;98943.19;5055707;28;20398;-65
2022/04/22 05:34:13;;;;;;;;;;;;;;;11.46;62.62;98938.88;5055125;28;19924;-65
2022/04/22 05:36:57;;;;;;;;;;;;;;;11.45;62.62;98934.56;5055697;28;19951;-65
2022/04/22 05:39:43;;;;;;;;;;;;;;;11.46;62.72;98927.66;5054320;28;19922;-65
2022/04/22 05:42:26;;;;;;;;;;;;;;;11.44;62.35;98935.47;5040015;28;19947;-65
2022/04/22 05:45:11;;;;;;;;;;;;;;;11.45;62.87;98933.72;5055037;28;20042;-65
2022/04/22 05:47:58;;;;;;;;;;;;;;;11.45;62.44;98933.72;5054959;28;20291;-65
2022/04/22 05:50:42;;;;;;;;;;;;;;;11.43;62.38;98929.38;5039989;28;20353;-65
2022/04/22 05:53:26;;;;;;;;;;;;;;;11.45;62.81;98924.19;5055022;28;19927;-65
2022/04/22 05:56:10;;;;;;;;;;;;;;;11.44;62.73;98927.69;5054448;28;20296;-65
2022/04/22 05:58:55;;;;;;;;;;;;;;;11.44;62.79;98938.06;5040145;28;19923;-65
2022/04/22 06:01:39;;;;;;;;;;;;;;;11.45;62.43;98934.56;5054781;28;20287;-65
2022/04/22 06:04:23;;;;;;;;;;;;;;;11.43;62.61;98929.38;5039773;28;19924;-66
2022/04/22 06:07:07;;;;;;;;;;;;;;;11.45;62.42;98931.97;5054508;28;19970;-66
2022/04/22 06:12:54;;;;;;;;;;;;;;;11.45;62.56;98941.50;5054133;28;20418;-65
2022/04/22 06:15:37;;;;;;;;;;;;;;;11.42;63.03;98943.22;5054539;28;19923;-65
2022/04/22 06:18:23;;;;;;;;;;;;;;;11.45;62.74;98938.91;5039344;28;19955;-65
2022/04/22 06:21:07;;;;;;;;;;;;;;;11.45;63.03;98931.97;5053393;28;19970;-65
2022/04/22 06:23:51;;;;;;;;;;;;;;;11.45;62.96;98931.97;5054229;28;19951;-65
2022/04/22 06:26:35;;;;;;;;;;;;;;;11.46;62.66;98933.69;5054305;28;19924;-65
2022/04/22 06:29:19;;;;;;;;;;;;;;;11.44;62.59;98927.69;5055040;28;19946;-65
2022/04/22 06:32:03;;;;;;;;;;;;;;;11.47;62.47;98931.97;5054106;28;19932;-65
2022/04/22 06:34:47;;;;;;;;;;;;;;;11.43;63.04;98925.94;5039489;28;19924;-66
2022/04/22 06:37:34;;;;;;;;;;;;;;;11.42;63.17;98932.00;5054074;28;19924;-65
2022/04/22 06:46:24;;;;;;;;;;;;;;;11.44;62.64;98938.06;5053597;28;19924;-65
2022/04/22 06:49:10;;;;;;;;;;;;;;;11.45;62.75;98929.38;5053854;28;19924;-65
2022/04/22 06:51:54;;;;;;;;;;;;;;;11.45;63.04;98931.13;5053869;28;19963;-65
2022/04/22 06:54:38;;;;;;;;;;;;;;;11.44;62.75;98930.25;5038366;28;20414;-66
2022/04/22 06:57:22;;;;;;;;;;;;;;;11.43;62.79;98931.97;5054140;28;19924;-65
2022/04/22 07:00:07;;;;;;;;;;;;;;;11.43;63.21;98925.94;5054174;28;19927;-65
2022/04/22 07:02:50;;;;;;;;;;;;;;;11.43;63.27;98921.59;5054184;28;19963;-65
2022/04/22 07:05:35;;;;;;;;;;;;;;;11.46;63.16;98927.66;5053583;28;20010;-64
2022/04/22 07:08:20;;;;;;;;;;;;;;;11.47;62.95;98934.56;5038842;28;19965;-65
2022/04/22 07:11:05;;;;;;;;;;;;;;;11.47;62.77;98930.22;5053683;28;19987;-65
2022/04/22 07:13:49;;;;;;;;;;;;;;;11.46;63.22;98925.91;5053667;28;19970;-65
2022/04/22 07:16:33;;;;;;;;;;;;;;;11.47;62.85;98925.03;5053679;28;19930;-65
2022/04/22 07:19:17;;;;;;;;;;;;;;;11.47;62.91;98922.44;5053750;28;20433;-65
2022/04/22 07:22:00;;;;;;;;;;;;;;;11.48;63.32;98923.31;5053302;28;19923;-65
2022/04/22 07:24:45;;;;;;;;;;;;;;;11.48;63.21;98918.13;5039024;28;19923;-65
2022/04/22 07:27:32;;;;;;;;;;;;;;;11.50;63.29;98914.66;5053527;28;20395;-65
2022/04/22 07:30:17;;;;;;;;;;;;;;;11.51;63.35;98912.94;5038848;28;20061;-65
2022/04/22 07:33:01;;;;;;;;;;;;;;;11.52;63.07;98907.72;5038547;28;19947;-65
2022/04/22 07:35:44;;;;;;;;;;;;;;;11.52;63.12;98906.88;5038408;28;19924;-65
2022/04/22 07:38:28;;;;;;;;;;;;;;;11.56;62.85;98903.38;5053306;28;19923;-65
2022/04/22 07:41:16;;;;;;;;;;;;;;;11.53;63.17;98901.66;5038455;28;19971;-65
2022/04/22 07:47:08;;;;;;;;;;;;;;;11.56;62.86;98911.16;5054252;28;19970;-65
2022/04/22 07:49:52;;;;;;;;;;;;;;;11.54;62.97;98908.56;5052636;28;19923;-65
2022/04/22 07:52:38;;;;;;;;;;;;;;;11.57;63.30;98905.09;5053119;28;19928;-65
2022/04/22 07:55:22;;;;;;;;;;;;;;;11.58;63.35;98906.81;5038641;28;20399;-65
2022/04/22 07:58:06;;;;;;;;;;;;;;;11.57;63.39;98905.97;5053207;28;19923;-65
2022/04/22 08:00:51;;;;;;;;;;;;;;;11.60;63.37;98914.63;5052389;28;19971;-65
2022/04/22 08:03:36;;;;;;;;;;;;;;;11.59;63.07;98900.75;5042231;28;20023;-64
2022/04/22 08:06:20;;;;;;;;;;;;;;;11.61;63.48;98903.31;5042411;28;19923;-64
2022/04/22 08:09:04;;;;;;;;;;;;;;;11.61;63.40;98899.03;5057082;28;19924;-65
2022/04/22 08:11:48;;;;;;;;;;;;;;;11.63;63.27;98896.41;5056503;28;20053;-67
2022/04/22 08:14:32;;;;;;;;;;;;;;;11.64;63.31;98891.22;5056833;28;19924;-65
2022/04/22 08:17:16;;;;;;;;;;;;;;;11.63;62.96;98894.69;5041893;28;19962;-65
2022/04/22 08:20:00;;;;;;;;;;;;;;;11.65;62.98;98897.25;5057096;28;19923;-65
2022/04/22 08:22:45;;;;;;;;;;;;;;;11.64;63.41;98893.81;5056643;28;20386;-65
2022/04/22 08:25:28;;;;;;;;;;;;;;;11.65;63.02;98886.88;5056701;28;20395;-65
2022/04/22 08:28:12;;;;;;;;;;;;;;;11.66;63.27;98896.38;5057070;28;19959;-65
2022/04/22 08:30:56;;;;;;;;;;;;;;;11.68;63.03;98897.25;5041877;28;20417;-65
2022/04/22 08:33:40;;;;;;;;;;;;;;;11.66;63.32;98894.66;5056584;28;19962;-65
2022/04/22 08:36:26;;;;;;;;;;;;;;;11.67;63.10;98898.09;5041965;28;20018;-65
2022/04/22 08:39:11;;;;;;;;;;;;;;;11.67;63.05;98895.50;5055999;28;19940;-65
2022/04/22 08:41:55;;;;;;;;;;;;;;;11.68;63.05;98892.06;5056611;28;19962;-65
2022/04/22 08:44:40;;;;;;;;;;;;;;;11.68;63.35;98892.91;5056349;28;19955;-65
2022/04/22 08:50:28;;;;;;;;;;;;;;;11.66;62.93;98889.47;5056241;28;19927;-66
2022/04/22 08:53:17;;;;;;;;;;;;;;;11.65;62.92;98890.34;5055696;28;20315;-65
2022/04/22 08:56:02;;;;;;;;;;;;;;;11.67;62.89;98887.72;5041357;28;19983;-65
2022/04/22 08:58:46;;;;;;;;;;;;;;;11.67;63.07;98888.59;5041561;28;20026;-65
2022/04/22 09:01:30;;;;;;;;;;;;;;;11.71;63.25;98884.25;5056001;28;19923;-65
2022/04/22 09:04:13;;;;;;;;;;;;;;;11.70;63.16;98880.78;5041225;28;19959;-65
2022/04/22 09:06:59;;;;;;;;;;;;;;;11.70;62.74;98874.75;5055700;28;20398;-65
2022/04/22 09:09:49;;;;;;;;;;;;;;;11.70;63.10;98878.19;5055961;28;19924;-65
2022/04/22 09:12:34;;;;;;;;;;;;;;;11.71;63.04;98884.25;5054319;28;20280;-66
2022/04/22 09:15:23;;;;;;;;;;;;;;;11.71;63.24;98885.09;5040844;28;19924;-65
2022/04/22 09:18:11;;;;;;;;;;;;;;;11.70;63.09;98870.41;5040926;28;19926;-66
2022/04/22 09:20:56;;;;;;;;;;;;;;;11.71;63.26;98874.72;5040424;28;19943;-65
2022/04/22 09:23:40;;;;;;;;;;;;;;;11.69;63.13;98875.59;5055852;28;19923;-65
2022/04/22 09:26:26;;;;;;;;;;;;;;;11.70;62.92;98875.59;5040792;28;19923;-65
2022/04/22 09:29:10;;;;;;;;;;;;;;;11.71;63.08;98871.28;5054588;28;19962;-66
2022/04/22 09:31:55;;;;;;;;;;;;;;;11.70;63.20;98859.16;5055035;28;19939;-65
2022/04/22 09:34:42;;;;;;;;;;;;;;;11.69;62.65;98865.22;5040368;28;20398;-65
2022/04/22 09:43:45;;;;;;;;;;;;;;;11.67;62.79;98866.97;5055600;28;19923;-65
2022/04/22 09:46:32;;;;;;;;;;;;;;;11.67;63.15;98865.25;5055261;28;19940;-65
2022/04/22 09:49:36;;;;;;;;;;;;;;;11.70;63.19;98866.94;5054809;28;19923;-65
2022/04/22 09:52:27;;;;;;;;;;;;;;;11.70;62.87;98859.16;5055336;28;19924;-65
2022/04/22 09:55:20;;;;;;;;;;;;;;;11.69;63.10;98858.28;5040145;28;19970;-65
2022/04/22 09:58:04;;;;;;;;;;;;;;;11.69;63.20;98853.09;5040247;28;19975;-65
2022/04/22 10:00:52;;;;;;;;;;;;;;;11.70;62.79;98859.16;5039410;28;19966;-65
2022/04/22 10:03:37;;;;;;;;;;;;;;;11.69;63.15;98855.69;5054807;28;20021;-65
2022/04/22 10:06:21;;;;;;;;;;;;;;;11.68;63.20;98853.13;5054546;28;19923;-65
2022/04/22 10:09:05;;;;;;;;;;;;;;;11.69;63.27;98847.91;5039720;28;19923;-65
2022/04/22 10:11:52;;;;;;;;;;;;;;;11.70;63.17;98856.56;5054467;28;19924;-65
2022/04/22 10:14:40;;;;;;;;;;;;;;;11.69;63.27;98849.66;5053280;28;20011;-65
2022/04/22 10:17:24;;;;;;;;;;;;;;;11.68;63.34;98842.75;5053422;28;19971;-65
2022/04/22 10:20:08;;;;;;;;;;;;;;;11.67;63.19;98843.59;5054083;28;19924;-65
2022/04/22 10:22:52;;;;;;;;;;;;;;;11.68;62.89;98850.53;5054401;28;19923;-65
2022/04/22 10:25:36;;;;;;;;;;;;;;;11.67;62.88;98852.28;5053474;28;19932;-65
2022/04/22 10:28:20;;;;;;;;;;;;;;;11.68;63.38;98842.75;5054092;28;19924;-65
2022/04/22 10:31:04;;;;;;;;;;;;;;;11.66;63.34;98847.94;5054512;28;20283;-65
2022/04/22 10:33:48;;;;;;;;;;;;;;;11.66;63.36;98840.16;5039023;28;19924;-65
2022/04/22 10:36:33;;;;;;;;;;;;;;;11.66;62.96;98837.56;5039501;28;19923;-65
2022/04/22 10:39:37;;;;;;;;;;;;;;;11.67;63.46;98836.69;5053622;28;19971;-65
2022/04/22 10:42:31;;;;;;;;;;;;;;;11.68;63.21;98829.75;5053760;28;19947;-66
2022/04/22 10:48:21;;;;;;;;;;;;;;;11.69;63.22;98821.09;5053757;28;19924;-65
2022/04/22 10:51:06;;;;;;;;;;;;;;;11.71;63.26;98816.78;5053713;28;19950;-65
2022/04/22 10:53:49;;;;;;;;;;;;;;;11.73;63.29;98810.69;5039267;28;20294;-66
2022/04/22 10:56:33;;;;;;;;;;;;;;;11.77;62.95;98805.47;5038623;28;20342;-66
2022/04/22 10:59:20;;;;;;;;;;;;;;;11.79;63.20;98806.31;5052772;28;20007;-65
2022/04/22 11:02:23;;;;;;;;;;;;;;;11.82;63.12;98799.34;5038849;28;19984;-65
2022/04/22 11:05:18;;;;;;;;;;;;;;;11.81;63.02;98794.19;5053424;28;20465;-65
2022/04/22 11:08:05;;;;;;;;;;;;;;;11.84;63.17;98792.41;5038823;28;19924;-65
2022/04/22 11:10:49;;;;;;;;;;;;;;;11.85;63.20;98791.53;5053784;28;20455;-65
2022/04/22 11:13:36;;;;;;;;;;;;;;;11.86;63.24;98788.09;5038489;28;19966;-65
2022/04/22 11:16:22;;;;;;;;;;;;;;;11.87;63.17;98783.72;5053929;28;20386;-64
2022/04/22 11:19:08;;;;;;;;;;;;;;;11.91;62.87;98787.19;5053867;28;19931;-65
2022/04/22 11:21:57;;;;;;;;;;;;;;;11.91;62.74;98776.81;5053756;28;19932;-65
2022/04/22 11:24:41;;;;;;;;;;;;;;;11.96;63.18;98773.28;5038662;28;20437;-65
2022/04/22 11:27:27;;;;;;;;;;;;;;;11.96;63.09;98768.09;5052924;28;19924;-65
2022/04/22 11:30:11;;;;;;;;;;;;;;;11.96;62.61;98764.63;5038620;28;19923;-64
2022/04/22 11:33:14;;;;;;;;;;;;;;;11.98;62.97;98757.66;5052841;28;20334;-65
2022/04/22 11:36:03;;;;;;;;;;;;;;;12.00;62.53;98754.19;5040314;28;19924;-65
2022/04/22 11:38:48;;;;;;;;;;;;;;;12.02;62.60;98762.00;5057141;28;19967;-66
2022/04/22 11:41:32;;;;;;;;;;;;;;;12.01;62.80;98760.28;5042721;28;19924;-65
2022/04/22 11:44:22;;;;;;;;;;;;;;;12.00;62.67;98750.75;5057349;28;19970;-65
2022/04/22 11:47:06;;;;;;;;;;;;;;;12.04;62.94;98755.06;5042662;28;19966;-65
2022/04/22 11:49:51;;;;;;;;;;;;;;;12.05;62.95;98749.00;5057356;28;19939;-65
2022/04/22 11:52:34;;;;;;;;;;;;;;;12.05;63.04;98751.59;5057407;28;19971;-65
2022/04/22 11:55:20;;;;;;;;;;;;;;;12.05;62.79;98750.72;5057426;28;20002;-65
2022/04/22 11:58:03;;;;;;;;;;;;;;;12.08;62.79;98742.88;5057176;28;19939;-65
2022/04/22 12:06:55;;;;;;;;;;;;;;;12.11;62.46;98737.66;5057168;28;19923;-65
2022/04/22 12:09:39;;;;;;;;;;;;;;;12.12;62.32;98740.25;5056963;28;19988;-66
2022/04/22 12:12:24;;;;;;;;;;;;;;;12.10;62.44;98734.19;5056873;28;19924;-65
2022/04/22 12:15:08;;;;;;;;;;;;;;;12.12;62.19;98734.19;5057450;28;19928;-65
2022/04/22 12:17:52;;;;;;;;;;;;;;;12.13;62.37;98726.38;5041884;28;19965;-65
2022/04/22 12:20:36;;;;;;;;;;;;;;;12.14;62.67;98732.44;5057321;28;19924;-65
2022/04/22 12:23:21;;;;;;;;;;;;;;;12.14;62.38;98725.50;5055601;28;19939;-65
2022/04/22 12:26:05;;;;;;;;;;;;;;;12.16;62.68;98728.06;5056875;28;20015;-64
2022/04/22 12:28:55;;;;;;;;;;;;;;;12.15;62.44;98728.94;5041472;28;19924;-65
2022/04/22 12:31:39;;;;;;;;;;;;;;;12.17;62.51;98724.59;5056708;28;19947;-65
2022/04/22 12:34:28;;;;;;;;;;;;;;;12.17;62.27;98728.06;5056357;28;20399;-65
2022/04/22 12:37:13;;;;;;;;;;;;;;;12.16;62.25;98723.75;5055926;28;19939;-65
2022/04/22 12:40:06;;;;;;;;;;;;;;;12.17;62.49;98727.19;5041778;28;19924;-65
2022/04/22 12:42:51;;;;;;;;;;;;;;;12.15;62.53;98721.16;5041285;28;19966;-65
2022/04/22 12:54:48;;;;;;;;;;;;;;;12.22;62.31;98698.59;5055711;28;20041;-64
2022/04/22 12:57:32;;;;;;;;;;;;;;;12.23;62.14;98693.38;5055932;28;20402;-65
2022/04/22 13:00:19;;;;;;;;;;;;;;;12.23;62.24;98706.34;5056516;28;19939;-65
2022/04/22 13:03:03;;;;;;;;;;;;;;;12.25;62.21;98695.94;5040952;28;19963;-65
2022/04/22 13:05:48;;;;;;;;;;;;;;;12.26;62.28;98682.06;5041306;28;20453;-65
2022/04/22 13:08:32;;;;;;;;;;;;;;;12.27;61.94;98683.78;5055858;28;20009;-66
2022/04/22 13:11:16;;;;;;;;;;;;;;;12.27;62.11;98681.19;5055799;28;19985;-65
2022/04/22 13:14:00;;;;;;;;;;;;;;;12.28;62.17;98675.13;5055581;28;19924;-65
2022/04/22 13:16:44;;;;;;;;;;;;;;;12.30;61.89;98681.16;5040373;28;19975;-65
2022/04/22 13:19:28;;;;;;;;;;;;;;;12.29;62.00;98685.50;5055308;28;19954;-65
2022/04/22 13:22:12;;;;;;;;;;;;;;;12.30;62.21;98682.00;5055589;28;19931;-64
2022/04/22 13:24:56;;;;;;;;;;;;;;;12.28;62.22;98678.59;5040859;28;19983;-65
2022/04/22 13:27:40;;;;;;;;;;;;;;;12.27;62.06;98682.06;5055837;28;19923;-65
2022/04/22 13:30:25;;;;;;;;;;;;;;;12.31;61.99;98672.50;5055067;28;20394;-65
2022/04/22 13:33:09;;;;;;;;;;;;;;;12.33;61.77;98683.72;5055743;28;19924;-65
2022/04/22 13:35:52;;;;;;;;;;;;;;;12.35;62.16;98668.97;5055800;28;20280;-66
2022/04/22 13:38:37;;;;;;;;;;;;;;;12.34;62.10;98675.91;5055541;28;20098;-65
2022/04/22 13:41:22;;;;;;;;;;;;;;;12.30;62.17;98674.22;5054885;28;19967;-65
2022/04/22 13:44:06;;;;;;;;;;;;;;;12.33;61.88;98671.56;5040091;28;19923;-65
2022/04/22 13:52:55;;;;;;;;;;;;;;;12.33;62.05;98670.72;5055378;28;19951;-65
2022/04/22 13:55:39;;;;;;;;;;;;;;;12.34;62.05;98665.50;5054793;28;20024;-65
2022/04/22 13:58:23;;;;;;;;;;;;;;;12.33;61.94;98666.38;5039761;28;19924;-66
2022/04/22 14:01:07;;;;;;;;;;;;;;;12.33;62.15;98661.19;5054700;28;19928;-65
2022/04/22 14:03:51;;;;;;;;;;;;;;;12.33;61.91;98668.13;5054941;28;19924;-65
2022/04/22 14:06:35;;;;;;;;;;;;;;;12.37;61.97;98662.03;5055129;28;19946;-65
2022/04/22 14:09:20;;;;;;;;;;;;;;;12.38;61.86;98661.13;5054861;28;20020;-65
2022/04/22 14:12:03;;;;;;;;;;;;;;;12.37;61.86;98653.34;5054785;28;20020;-65
2022/04/22 14:14:47;;;;;;;;;;;;;;;12.37;61.90;98646.44;5054443;28;20020;-65
2022/04/22 14:17:31;;;;;;;;;;;;;;;12.38;61.85;98640.34;5039968;28;20372;-65
2022/04/22 14:20:15;;;;;;;;;;;;;;;12.37;61.81;98636.03;5054741;28;20010;-65
2022/04/22 14:22:59;;;;;;;;;;;;;;;12.41;61.77;98636.84;5039156;28;20292;-64
2022/04/22 14:25:42;;;;;;;;;;;;;;;12.43;61.66;98635.09;5039712;28;19923;-65
2022/04/22 14:28:27;;;;;;;;;;;;;;;12.45;61.65;98631.59;5054729;28;19924;-65
2022/04/22 14:31:11;;;;;;;;;;;;;;;12.46;61.93;98630.72;5054512;28;19962;-65
2022/04/22 14:33:55;;;;;;;;;;;;;;;12.46;61.91;98635.91;5039007;28;19967;-65
2022/04/22 14:36:39;;;;;;;;;;;;;;;12.49;61.82;98635.88;5053832;28;19924;-65
2022/04/22 14:39:26;;;;;;;;;;;;;;;12.50;61.52;98631.50;5054123;28;19924;-65
2022/04/22 14:42:10;;;;;;;;;;;;;;;12.49;61.62;98628.06;5039274;28;19924;-65
2022/04/22 14:44:54;;;;;;;;;;;;;;;12.51;61.36;98640.19;5053076;28;20429;-65
2022/04/22 14:47:38;;;;;;;;;;;;;;;12.52;61.44;98639.31;5039520;28;19923;-65
2022/04/22 14:50:22;;;;;;;;;;;;;;;12.53;61.51;98630.63;5039219;28;20432;-65
2022/04/22 14:53:06;;;;;;;;;;;;;;;12.54;61.40;98628.00;5039011;28;20323;-64
2022/04/22 14:55:50;;;;;;;;;;;;;;;12.55;61.27;98632.31;5053296;28;19970;-65
2022/04/22 14:58:34;;;;;;;;;;;;;;;12.55;61.27;98628.84;5054208;28;19962;-65
2022/04/22 15:01:18;;;;;;;;;;;;;;;12.55;61.55;98632.31;5053756;28;19923;-65
2022/04/22 15:04:02;;;;;;;;;;;;;;;12.55;61.27;98628.84;5053496;28;19935;-66
2022/04/22 15:06:47;;;;;;;;;;;;;;;12.54;61.43;98625.41;5038786;28;19923;-64
2022/04/22 15:09:31;;;;;;;;;;;;;;;12.53;61.55;98622.84;5038772;28;20287;-65
2022/04/22 15:12:15;;;;;;;;;;;;;;;12.53;61.32;98621.09;5038446;28;20347;-65
2022/04/22 15:14:59;;;;;;;;;;;;;;;12.53;61.57;98625.44;5053802;28;20002;-65
2022/04/22 15:26:54;;;;;;;;;;;;;;;12.57;61.33;98619.28;5053170;28;20020;-66
2022/04/22 15:29:40;;;;;;;;;;;;;;;12.58;61.08;98619.28;5038873;28;20280;-65
2022/04/22 15:32:24;;;;;;;;;;;;;;;12.61;61.13;98619.22;5038694;28;19924;-64
2022/04/22 15:35:08;;;;;;;;;;;;;;;12.63;61.46;98619.22;5053625;28;20303;-65
2022/04/22 15:37:52;;;;;;;;;;;;;;;12.64;61.31;98610.53;5053803;28;19924;-66
2022/04/22 15:40:36;;;;;;;;;;;;;;;12.64;61.07;98610.53;5038381;28;19923;-64
2022/04/22 15:43:20;;;;;;;;;;;;;;;12.63;61.20;98608.81;5053636;28;19990;-65
2022/04/22 15:46:04;;;;;;;;;;;;;;;12.64;61.46;98611.38;5053629;28;19963;-65